Time;durP1;ratioP1;P1;durP2;ratioP2;P2;SDS_P1;SDS_P2;PMS_P1;PMS_P2;Temp;Humidity;BMP_temperature;BMP_pressure;BME280_temperature;BME280_humidity;BME280_pressure;Samples;Min_cycle;Max_cycle;Signal;HPM_P1;HPM_P2
2023/12/21 00:02:23;;;;;;;4.87;3.53;;;3.60;99.90;;;;;;8374066;28;20288;-65
2023/12/21 00:06:24;;;;;;;5.33;3.60;;;3.60;99.90;;;;;;8372654;28;20212;-64
2023/12/21 00:10:25;;;;;;;6.10;4.17;;;3.60;1.00;;;;;;8359057;28;20205;-65
2023/12/21 00:14:29;;;;;;;6.73;4.87;;;3.60;1.00;;;;;;8362030;28;20273;-65
2023/12/21 00:18:30;;;;;;;6.07;4.50;;;3.60;1.00;;;;;;8358108;28;20192;-65
2023/12/21 00:22:31;;;;;;;6.80;4.97;;;3.70;99.90;;;;;;8361291;28;20193;-65
2023/12/21 00:26:32;;;;;;;8.87;6.07;;;3.70;99.90;;;;;;8362460;28;20192;-64
2023/12/21 00:30:33;;;;;;;9.60;5.20;;;3.70;99.90;;;;;;8357172;28;20212;-65
2023/12/21 00:34:33;;;;;;;9.40;4.47;;;3.80;1.00;;;;;;8362689;28;20185;-66
2023/12/21 00:38:34;;;;;;;8.03;4.03;;;3.90;1.00;;;;;;8358217;28;20197;-65
2023/12/21 00:42:38;;;;;;;3.90;3.23;;;4.00;99.90;;;;;;8362200;28;20185;-67
2023/12/21 00:46:39;;;;;;;4.07;3.00;;;4.20;55.10;;;;;;8375169;28;20193;-66
2023/12/21 00:50:40;;;;;;;3.93;2.50;;;4.20;99.90;;;;;;8355776;28;20209;-66
2023/12/21 00:54:41;;;;;;;4.77;2.83;;;4.40;99.90;;;;;;8355950;28;20186;-66
2023/12/21 00:58:41;;;;;;;4.43;3.13;;;4.50;1.00;;;;;;8361750;28;20192;-66
2023/12/21 01:02:42;;;;;;;3.13;2.63;;;4.50;1.00;;;;;;8360491;28;20323;-66
2023/12/21 01:06:43;;;;;;;3.87;3.27;;;4.60;99.90;;;;;;8360202;28;20240;-66
2023/12/21 01:10:44;;;;;;;4.13;2.90;;;4.60;99.90;;;;;;8372702;28;20321;-65
2023/12/21 01:14:45;;;;;;;3.97;2.77;;;4.60;99.90;;;;;;8358790;28;20743;-66
2023/12/21 01:18:46;;;;;;;2.90;2.60;;;4.60;1.00;;;;;;8360232;28;20209;-64
2023/12/21 01:22:47;;;;;;;3.97;3.20;;;4.70;60.90;;;;;;8356952;28;20259;-65
2023/12/21 01:26:50;;;;;;;3.20;2.43;;;4.70;1.00;;;;;;8354719;28;20189;-66
2023/12/21 01:30:52;;;;;;;4.73;3.00;;;4.70;99.90;;;;;;8358205;28;20216;-66
2023/12/21 01:34:53;;;;;;;2.73;2.13;;;4.70;1.00;;;;;;8355456;28;20198;-66
2023/12/21 01:38:53;;;;;;;2.47;2.20;;;4.70;1.00;;;;;;8363098;28;20292;-66
2023/12/21 01:42:54;;;;;;;2.57;2.10;;;4.70;1.00;;;;;;8361619;28;20245;-67
2023/12/21 01:46:55;;;;;;;3.00;2.00;;;4.70;99.90;;;;;;8364968;28;20193;-67
2023/12/21 01:50:58;;;;;;;1.70;1.30;;;4.70;99.90;;;;;;8364372;28;20236;-66
2023/12/21 01:55:00;;;;;;;1.70;1.60;;;4.80;1.00;;;;;;8364227;28;20181;-66
2023/12/21 01:59:01;;;;;;;2.17;1.50;;;4.80;1.00;;;;;;8360543;28;20185;-65
2023/12/21 02:03:02;;;;;;;1.30;1.20;;;4.80;99.90;;;;;;8375914;28;20197;-66
2023/12/21 02:07:03;;;;;;;1.40;1.17;;;4.80;99.90;;;;;;8378022;28;20227;-66
2023/12/21 02:11:09;;;;;;;2.03;1.10;;;4.80;99.90;;;;;;8360691;28;20224;-67
2023/12/21 02:15:10;;;;;;;1.47;1.10;;;4.70;99.90;;;;;;8358627;28;20181;-66
2023/12/21 02:19:13;;;;;;;1.97;0.87;;;4.70;99.90;;;;;;8360159;28;20255;-65
2023/12/21 02:23:18;;;;;;;0.97;0.73;;;4.70;99.90;;;;;;8366261;28;20472;-65
2023/12/21 02:27:19;;;;;;;1.67;1.00;;;4.70;99.90;;;;;;8359146;28;20251;-66
2023/12/21 02:31:20;;;;;;;1.67;0.60;;;4.80;99.90;;;;;;8365507;28;20242;-65
2023/12/21 02:35:20;;;;;;;0.73;0.70;;;4.80;99.90;;;;;;8367155;28;20186;-64
2023/12/21 02:39:21;;;;;;;2.30;0.77;;;4.70;99.90;;;;;;8351790;28;21612;-65
2023/12/21 02:43:22;;;;;;;0.77;0.47;;;4.80;99.90;;;;;;8357565;28;20193;-65
2023/12/21 02:47:22;;;;;;;1.27;0.57;;;4.70;99.90;;;;;;8356818;28;20194;-62
2023/12/21 02:51:23;;;;;;;0.77;0.43;;;4.80;47.60;;;;;;8373688;28;20258;-63
2023/12/21 02:55:24;;;;;;;0.87;0.70;;;4.80;16.00;;;;;;8357764;28;20185;-66
2023/12/21 02:59:25;;;;;;;1.13;0.50;;;4.80;1.00;;;;;;8356353;28;20197;-65
2023/12/21 03:03:25;;;;;;;0.40;0.40;;;4.70;1.00;;;;;;8350747;28;20216;-66
2023/12/21 03:07:26;;;;;;;1.63;0.70;;;4.70;1.00;;;;;;8373750;28;20289;-64
2023/12/21 03:11:27;;;;;;;0.50;0.50;;;4.70;1.00;;;;;;8358229;28;20220;-63
2023/12/21 03:15:28;;;;;;;2.13;0.63;;;4.70;1.00;;;;;;8354487;28;20189;-63
2023/12/21 03:19:29;;;;;;;0.53;0.40;;;4.70;1.00;;;;;;8357433;28;20202;-65
2023/12/21 03:23:30;;;;;;;0.77;0.60;;;4.70;1.00;;;;;;8355409;28;20231;-63
2023/12/21 03:27:31;;;;;;;1.50;0.67;;;4.70;1.00;;;;;;8362156;28;20245;-63
2023/12/21 03:31:32;;;;;;;0.63;0.40;;;4.70;1.00;;;;;;8357192;28;20215;-63
2023/12/21 03:35:33;;;;;;;0.70;0.70;;;4.70;99.90;;;;;;8355700;28;20196;-64
2023/12/21 03:39:37;;;;;;;0.80;0.60;;;4.70;99.90;;;;;;8360794;28;20189;-63
2023/12/21 03:43:37;;;;;;;1.47;0.60;;;4.70;99.90;;;;;;8360894;28;20212;-63
2023/12/21 03:47:38;;;;;;;0.80;0.50;;;4.70;99.90;;;;;;8356903;28;20222;-63
2023/12/21 03:51:39;;;;;;;0.90;0.60;;;4.80;99.90;;;;;;8356598;28;21600;-63
2023/12/21 03:55:40;;;;;;;0.80;0.60;;;4.80;99.90;;;;;;8355389;28;20212;-64
2023/12/21 03:59:44;;;;;;;0.97;0.60;;;4.80;1.00;;;;;;8361295;28;20188;-64
2023/12/21 04:03:44;;;;;;;0.90;0.63;;;4.80;1.00;;;;;;8356083;28;20209;-63
2023/12/21 04:07:45;;;;;;;0.60;0.50;;;4.80;99.90;;;;;;8360260;28;20180;-64
2023/12/21 04:11:46;;;;;;;0.43;0.43;;;4.90;99.90;;;;;;8356299;28;20668;-65
2023/12/21 04:15:47;;;;;;;1.77;0.50;;;4.90;99.90;;;;;;8361005;28;20276;-64
2023/12/21 04:19:47;;;;;;;2.50;0.67;;;4.90;99.90;;;;;;8362132;28;20189;-66
2023/12/21 04:23:48;;;;;;;1.20;0.53;;;4.90;99.90;;;;;;8354927;28;20211;-64
2023/12/21 04:27:49;;;;;;;1.07;0.40;;;4.90;99.90;;;;;;8361545;28;20205;-64
2023/12/21 04:31:50;;;;;;;1.80;0.70;;;4.90;1.00;;;;;;8352848;28;20216;-68
2023/12/21 04:35:50;;;;;;;0.77;0.70;;;4.90;58.80;;;;;;8352485;28;20177;-65
2023/12/21 04:39:51;;;;;;;0.87;0.70;;;4.90;99.90;;;;;;8356184;28;20194;-65
2023/12/21 04:43:52;;;;;;;0.70;0.60;;;4.90;99.90;;;;;;8359289;28;20530;-65
2023/12/21 04:47:53;;;;;;;2.30;0.60;;;4.90;99.90;;;;;;8360352;28;20189;-64
2023/12/21 04:51:54;;;;;;;1.17;0.80;;;4.90;99.90;;;;;;8359150;28;20221;-65
2023/12/21 04:55:57;;;;;;;1.20;0.90;;;4.90;99.90;;;;;;8364623;28;20181;-63
2023/12/21 05:00:01;;;;;;;1.27;0.80;;;4.90;99.90;;;;;;8359708;28;20189;-63
2023/12/21 05:04:09;;;;;;;1.50;0.70;;;5.00;99.90;;;;;;8357413;28;20236;-63
2023/12/21 05:08:10;;;;;;;1.47;0.90;;;5.00;1.00;;;;;;8374463;28;20182;-63
2023/12/21 05:12:11;;;;;;;1.67;0.80;;;5.00;99.90;;;;;;8356728;28;20205;-64
2023/12/21 05:16:11;;;;;;;1.10;0.70;;;4.90;99.90;;;;;;8366728;28;20181;-64
2023/12/21 05:20:12;;;;;;;1.53;0.70;;;5.00;1.00;;;;;;8362204;28;20185;-63
2023/12/21 05:24:13;;;;;;;2.00;0.70;;;5.00;1.00;;;;;;8362949;28;20243;-64
2023/12/21 05:28:14;;;;;;;1.07;0.97;;;5.00;99.90;;;;;;8365619;28;20177;-68
2023/12/21 05:32:15;;;;;;;1.20;1.10;;;5.00;99.90;;;;;;8358121;28;20219;-64
2023/12/21 05:36:25;;;;;;;1.93;0.70;;;5.00;99.90;;;;;;8365532;28;20192;-65
2023/12/21 05:40:26;;;;;;;1.60;1.10;;;5.00;99.90;;;;;;8367446;28;20193;-63
2023/12/21 05:44:26;;;;;;;1.03;0.93;;;5.10;99.90;;;;;;8364353;28;20197;-63
2023/12/21 05:48:27;;;;;;;1.10;0.87;;;5.10;99.90;;;;;;8379181;28;20228;-63
2023/12/21 05:52:28;;;;;;;3.17;0.87;;;5.10;99.90;;;;;;8365480;28;20216;-64
2023/12/21 05:56:35;;;;;;;1.20;0.90;;;5.10;99.90;;;;;;8362248;28;20309;-63
2023/12/21 06:00:37;;;;;;;3.17;1.20;;;5.20;99.90;;;;;;8363278;28;20235;-64
2023/12/21 06:04:38;;;;;;;1.63;1.07;;;5.20;99.90;;;;;;8362126;28;20206;-62
2023/12/21 06:08:39;;;;;;;1.73;1.10;;;5.20;99.90;;;;;;8367064;28;20212;-64
2023/12/21 06:12:40;;;;;;;2.17;1.20;;;5.30;99.90;;;;;;8362583;28;20209;-63
2023/12/21 06:16:40;;;;;;;1.23;0.93;;;5.30;99.90;;;;;;8362841;28;20539;-64
2023/12/21 06:20:41;;;;;;;2.23;1.40;;;5.30;99.90;;;;;;8359823;28;20185;-64
2023/12/21 06:24:42;;;;;;;1.57;1.20;;;5.30;99.90;;;;;;8367065;28;20185;-64
2023/12/21 06:28:43;;;;;;;2.67;1.27;;;5.30;99.90;;;;;;8362587;28;20189;-64
2023/12/21 06:32:43;;;;;;;2.27;1.30;;;5.40;99.90;;;;;;8364918;28;20205;-63
2023/12/21 06:36:47;;;;;;;1.90;1.10;;;5.40;99.90;;;;;;8362372;28;20177;-62
2023/12/21 06:40:48;;;;;;;1.70;0.93;;;5.40;99.90;;;;;;8380747;28;20182;-62
2023/12/21 06:44:49;;;;;;;1.53;1.00;;;5.40;99.90;;;;;;8376247;28;20185;-64
2023/12/21 06:48:50;;;;;;;1.47;1.17;;;5.40;99.90;;;;;;8361450;28;20613;-63
2023/12/21 06:52:51;;;;;;;1.60;1.20;;;5.40;99.90;;;;;;8362891;28;20213;-63
2023/12/21 06:56:51;;;;;;;1.90;1.00;;;5.40;99.90;;;;;;8362783;28;20308;-65
2023/12/21 07:00:52;;;;;;;2.10;1.80;;;5.50;99.90;;;;;;8363770;28;20306;-64
2023/12/21 07:04:53;;;;;;;1.87;1.50;;;5.50;99.90;;;;;;8354570;28;20300;-64
2023/12/21 07:08:54;;;;;;;1.97;1.47;;;5.50;99.90;;;;;;8360509;28;20190;-65
2023/12/21 07:12:55;;;;;;;2.87;1.20;;;5.50;99.90;;;;;;8361671;28;20316;-64
2023/12/21 07:16:55;;;;;;;2.83;1.23;;;5.50;99.90;;;;;;8351655;28;20193;-64
2023/12/21 07:20:56;;;;;;;2.53;1.43;;;5.60;99.90;;;;;;8359768;28;20189;-64
2023/12/21 07:24:57;;;;;;;5.43;1.30;;;5.60;99.90;;;;;;8374519;28;20189;-63
2023/12/21 07:28:58;;;;;;;2.17;1.57;;;5.60;99.90;;;;;;8359341;28;20201;-65
2023/12/21 07:32:58;;;;;;;2.07;1.07;;;5.70;99.90;;;;;;8356728;28;20268;-63
2023/12/21 07:36:59;;;;;;;2.37;1.37;;;5.80;99.90;;;;;;8361983;28;20181;-63
2023/12/21 07:41:03;;;;;;;1.60;1.20;;;5.80;99.90;;;;;;8361627;28;20259;-63
2023/12/21 07:45:05;;;;;;;3.27;1.20;;;5.80;99.90;;;;;;8353476;28;20203;-64
2023/12/21 07:49:06;;;;;;;1.73;1.07;;;5.80;99.90;;;;;;8361993;28;20248;-66
2023/12/21 07:53:07;;;;;;;1.60;1.07;;;5.90;99.90;;;;;;8358328;28;20227;-64
2023/12/21 07:57:08;;;;;;;2.80;1.30;;;5.90;99.90;;;;;;8357104;28;20214;-63
2023/12/21 08:01:08;;;;;;;1.43;1.30;;;6.00;99.90;;;;;;8364451;28;20185;-64
2023/12/21 08:05:09;;;;;;;1.43;1.00;;;5.90;99.90;;;;;;8358510;28;20217;-64
2023/12/21 08:09:10;;;;;;;1.63;1.17;;;6.00;99.90;;;;;;8358691;28;20292;-64
2023/12/21 08:13:14;;;;;;;1.50;1.10;;;6.00;99.90;;;;;;8352915;28;20235;-63
2023/12/21 08:17:17;;;;;;;1.40;1.10;;;6.10;99.90;;;;;;8357872;28;20209;-65
2023/12/21 08:21:17;;;;;;;1.33;0.90;;;6.20;99.90;;;;;;8378773;28;20197;-64
2023/12/21 08:25:18;;;;;;;1.20;1.00;;;6.20;99.90;;;;;;8356681;28;20242;-64
2023/12/21 08:29:19;;;;;;;1.17;0.90;;;6.30;99.90;;;;;;8363811;28;20186;-64
2023/12/21 08:33:20;;;;;;;1.37;0.93;;;6.30;99.90;;;;;;8362274;28;20212;-68
2023/12/21 08:37:21;;;;;;;1.53;0.70;;;6.30;99.90;;;;;;8358741;28;20191;-64
2023/12/21 08:41:24;;;;;;;1.53;0.90;;;6.40;99.90;;;;;;8357167;28;20189;-65
2023/12/21 08:45:25;;;;;;;1.33;0.90;;;6.30;99.90;;;;;;8357220;28;20196;-64
2023/12/21 08:49:26;;;;;;;1.43;0.80;;;6.30;99.90;;;;;;8372000;28;20205;-64
2023/12/21 08:53:26;;;;;;;1.43;0.80;;;6.30;99.90;;;;;;8362796;28;20224;-64
2023/12/21 08:57:27;;;;;;;1.83;0.90;;;6.40;99.90;;;;;;8364141;28;20186;-65
2023/12/21 09:01:31;;;;;;;1.57;1.00;;;6.40;99.90;;;;;;8381030;28;20189;-63
2023/12/21 09:05:31;;;;;;;2.20;1.00;;;6.50;99.90;;;;;;8380921;28;20209;-66
2023/12/21 09:09:32;;;;;;;2.00;0.83;;;6.50;99.90;;;;;;8373808;28;20200;-62
2023/12/21 09:13:33;;;;;;;1.40;1.00;;;6.50;99.90;;;;;;8358677;28;20216;-69
2023/12/21 09:17:35;;;;;;;1.07;0.70;;;6.50;99.90;;;;;;8368612;28;20218;-63
2023/12/21 09:21:37;;;;;;;0.97;0.67;;;6.50;99.90;;;;;;8364912;28;20248;-63
2023/12/21 09:25:38;;;;;;;0.90;0.77;;;6.50;99.90;;;;;;8366997;28;20186;-67
2023/12/21 09:29:39;;;;;;;1.10;0.77;;;6.60;99.90;;;;;;8357332;28;20186;-63
2023/12/21 09:33:40;;;;;;;1.10;0.70;;;6.60;99.90;;;;;;8361495;28;20215;-64
2023/12/21 09:37:40;;;;;;;0.87;0.70;;;6.60;99.90;;;;;;8381297;28;20220;-65
2023/12/21 09:41:42;;;;;;;2.13;0.70;;;6.70;99.90;;;;;;8364088;28;20193;-64
2023/12/21 09:45:46;;;;;;;1.80;0.80;;;6.70;99.90;;;;;;8367928;28;20198;-66
2023/12/21 09:49:47;;;;;;;1.57;0.70;;;6.80;99.90;;;;;;8375197;28;20386;-64
2023/12/21 09:53:50;;;;;;;1.30;0.90;;;6.80;99.90;;;;;;8384278;28;20239;-63
2023/12/21 09:57:51;;;;;;;2.03;1.00;;;6.80;99.90;;;;;;8353937;28;20273;-63
2023/12/21 10:01:53;;;;;;;1.50;1.20;;;6.90;99.90;;;;;;8359811;28;20193;-65
2023/12/21 10:05:56;;;;;;;1.63;1.00;;;7.00;99.90;;;;;;8365225;28;20210;-64
2023/12/21 10:10:00;;;;;;;2.23;1.40;;;7.00;99.90;;;;;;8364036;28;20200;-64
2023/12/21 10:14:01;;;;;;;1.33;1.13;;;7.10;99.90;;;;;;8361979;28;20210;-64
2023/12/21 10:18:06;;;;;;;2.33;1.50;;;7.10;99.90;;;;;;8356325;28;20228;-65
2023/12/21 10:22:06;;;;;;;1.60;1.13;;;7.10;99.90;;;;;;8360379;28;20189;-64
2023/12/21 10:26:07;;;;;;;1.47;1.33;;;7.10;99.90;;;;;;8356034;28;20200;-64
2023/12/21 10:30:08;;;;;;;1.73;1.20;;;7.10;99.90;;;;;;8362527;28;20364;-66
2023/12/21 10:34:09;;;;;;;1.53;1.20;;;7.00;99.90;;;;;;8363846;28;20303;-64
2023/12/21 10:38:10;;;;;;;1.57;1.30;;;7.00;99.90;;;;;;8363482;28;20189;-63
2023/12/21 10:42:14;;;;;;;1.97;1.50;;;7.00;99.90;;;;;;8357660;28;20186;-65
2023/12/21 10:46:17;;;;;;;1.97;1.33;;;7.10;99.90;;;;;;8359557;28;20274;-65
2023/12/21 10:50:21;;;;;;;3.00;1.10;;;7.10;99.90;;;;;;8359905;28;20186;-65
2023/12/21 10:54:24;;;;;;;6.20;2.00;;;7.20;99.90;;;;;;8359332;28;20197;-64
2023/12/21 10:58:27;;;;;;;1.30;0.90;;;7.10;99.90;;;;;;8370526;28;20249;-65
2023/12/21 11:02:29;;;;;;;1.10;0.83;;;7.10;99.90;;;;;;8362948;28;20187;-64
2023/12/21 11:06:36;;;;;;;1.97;1.10;;;7.10;99.90;;;;;;8358791;28;20201;-66
2023/12/21 11:10:37;;;;;;;1.73;1.13;;;7.00;99.90;;;;;;8353674;28;20207;-63
2023/12/21 11:14:39;;;;;;;2.00;0.93;;;7.00;99.90;;;;;;8358393;28;20292;-65
2023/12/21 11:18:43;;;;;;;1.17;0.83;;;7.00;99.90;;;;;;8358632;28;20602;-64
2023/12/21 11:22:45;;;;;;;1.17;0.87;;;7.00;99.90;;;;;;8375993;28;20182;-65
2023/12/21 11:26:46;;;;;;;1.57;0.80;;;7.00;99.90;;;;;;8371832;28;20182;-64
2023/12/21 11:30:50;;;;;;;3.63;0.80;;;7.00;99.90;;;;;;8365874;28;20212;-65
2023/12/21 11:34:51;;;;;;;1.27;0.90;;;7.00;99.90;;;;;;8374847;28;20193;-64
2023/12/21 11:38:53;;;;;;;1.43;0.90;;;7.00;99.90;;;;;;8359438;28;20214;-65
2023/12/21 11:42:57;;;;;;;1.43;1.20;;;7.00;99.90;;;;;;8372306;28;20288;-64
2023/12/21 11:46:59;;;;;;;2.00;1.10;;;7.10;99.90;;;;;;8362604;28;20196;-65
2023/12/21 11:51:04;;;;;;;1.97;1.20;;;7.10;99.90;;;;;;8359198;28;20265;-64
2023/12/21 11:55:05;;;;;;;2.10;1.40;;;7.30;99.90;;;;;;8352288;28;20178;-66
2023/12/21 11:59:10;;;;;;;1.43;1.00;;;7.30;99.90;;;;;;8361067;28;20181;-64
2023/12/21 12:03:12;;;;;;;0.80;0.80;;;7.40;99.90;;;;;;8369838;28;20193;-64
2023/12/21 12:07:13;;;;;;;1.53;1.00;;;7.40;99.90;;;;;;8355645;28;20242;-64
2023/12/21 12:11:14;;;;;;;1.87;0.90;;;7.40;99.90;;;;;;8353286;28;20236;-63
2023/12/21 12:15:17;;;;;;;1.47;0.70;;;7.40;99.90;;;;;;8356179;28;20514;-68
2023/12/21 12:19:18;;;;;;;1.00;0.80;;;7.40;99.90;;;;;;8358763;28;20220;-68
2023/12/21 12:23:19;;;;;;;2.10;0.80;;;7.30;99.90;;;;;;8376609;28;20189;-68
2023/12/21 12:27:20;;;;;;;1.00;0.70;;;7.40;99.90;;;;;;8352687;28;20252;-69
2023/12/21 12:31:20;;;;;;;1.40;0.73;;;7.40;99.90;;;;;;8356928;28;20198;-65
2023/12/21 12:35:21;;;;;;;1.70;0.80;;;7.30;99.90;;;;;;8355671;28;20468;-65
2023/12/21 12:39:22;;;;;;;1.77;1.00;;;7.30;99.90;;;;;;8358953;28;20186;-65
2023/12/21 12:43:25;;;;;;;1.20;0.90;;;7.40;99.90;;;;;;8355835;28;20250;-66
2023/12/21 12:47:27;;;;;;;2.80;1.00;;;7.30;99.90;;;;;;8355549;28;20193;-67
2023/12/21 12:51:29;;;;;;;1.87;1.30;;;7.30;99.90;;;;;;8355810;28;20506;-67
2023/12/21 12:55:30;;;;;;;1.07;0.87;;;7.30;99.90;;;;;;8354635;28;20188;-65
2023/12/21 12:59:35;;;;;;;1.90;1.10;;;7.30;99.90;;;;;;8353777;28;20186;-64
2023/12/21 13:03:35;;;;;;;1.23;0.90;;;7.30;99.90;;;;;;8354791;28;20205;-64
2023/12/21 13:07:37;;;;;;;1.73;1.10;;;7.30;99.90;;;;;;8352733;28;20189;-67
2023/12/21 13:11:38;;;;;;;1.80;1.10;;;7.30;99.90;;;;;;8372874;28;20221;-66
2023/12/21 13:15:39;;;;;;;1.40;0.80;;;7.30;99.90;;;;;;8351026;28;20375;-64
2023/12/21 13:19:40;;;;;;;1.43;0.80;;;7.30;99.90;;;;;;8361012;28;20201;-65
2023/12/21 13:23:42;;;;;;;2.07;1.10;;;7.30;99.90;;;;;;8356196;28;20194;-65
2023/12/21 13:27:42;;;;;;;1.73;0.90;;;7.30;99.90;;;;;;8352739;28;20213;-64
2023/12/21 13:31:43;;;;;;;2.00;1.03;;;7.40;99.90;;;;;;8354653;28;20201;-64
2023/12/21 13:35:44;;;;;;;2.03;1.20;;;7.30;99.90;;;;;;8378436;28;21936;-65
2023/12/21 13:39:48;;;;;;;1.00;0.80;;;7.40;99.90;;;;;;8366031;28;20181;-65
2023/12/21 13:43:49;;;;;;;2.13;1.40;;;7.30;99.90;;;;;;8366519;28;21678;-64
2023/12/21 13:47:50;;;;;;;1.33;0.97;;;7.20;99.90;;;;;;8363460;28;20193;-66
2023/12/21 13:51:51;;;;;;;1.17;0.90;;;7.20;99.90;;;;;;8379479;28;20213;-64
2023/12/21 13:55:52;;;;;;;3.00;1.13;;;7.20;99.90;;;;;;8358576;28;20554;-66
2023/12/21 13:59:52;;;;;;;2.67;1.40;;;7.20;99.90;;;;;;8360113;28;20198;-64
2023/12/21 14:03:55;;;;;;;2.43;1.20;;;7.20;99.90;;;;;;8360287;28;20201;-64
2023/12/21 14:07:56;;;;;;;3.63;1.23;;;7.20;99.90;;;;;;8363474;28;20189;-64
2023/12/21 14:11:57;;;;;;;1.93;1.23;;;7.20;99.90;;;;;;8363848;28;20213;-64
2023/12/21 14:15:58;;;;;;;1.63;1.00;;;7.10;99.90;;;;;;8369682;28;21660;-64
2023/12/21 14:19:59;;;;;;;2.00;1.23;;;7.10;99.90;;;;;;8370350;28;21949;-65
2023/12/21 14:24:00;;;;;;;2.37;1.10;;;7.10;99.90;;;;;;8359576;28;20197;-64
2023/12/21 14:28:00;;;;;;;2.60;1.27;;;7.00;99.90;;;;;;8364265;28;20557;-65
2023/12/21 14:32:01;;;;;;;1.83;1.30;;;7.00;99.90;;;;;;8376813;28;20254;-63
2023/12/21 14:36:03;;;;;;;2.03;1.20;;;6.90;99.90;;;;;;8355255;28;20276;-64
2023/12/21 14:40:04;;;;;;;2.40;1.57;;;6.90;99.90;;;;;;8360780;28;20502;-66
2023/12/21 14:44:05;;;;;;;3.80;2.80;;;7.00;99.90;;;;;;8378424;28;20196;-63
2023/12/21 14:48:06;;;;;;;4.13;1.77;;;6.90;99.90;;;;;;8377356;28;20189;-64
2023/12/21 14:52:07;;;;;;;3.50;1.80;;;6.90;99.90;;;;;;8356982;28;20212;-63
2023/12/21 14:56:07;;;;;;;1.60;1.30;;;6.90;99.90;;;;;;8356572;28;20185;-64
2023/12/21 15:00:09;;;;;;;2.37;1.87;;;6.90;99.90;;;;;;8358456;28;20238;-64
2023/12/21 15:04:11;;;;;;;2.60;2.07;;;6.80;99.90;;;;;;8354161;28;20232;-64
2023/12/21 15:08:11;;;;;;;3.27;1.90;;;6.90;99.90;;;;;;8361315;28;20236;-62
2023/12/21 15:12:12;;;;;;;1.70;1.30;;;6.90;99.90;;;;;;8359351;28;20232;-64
2023/12/21 15:16:13;;;;;;;1.43;1.10;;;6.90;99.90;;;;;;8365734;28;20191;-69
2023/12/21 15:20:17;;;;;;;2.63;1.30;;;6.90;99.90;;;;;;8353500;28;20182;-64
2023/12/21 15:24:18;;;;;;;2.27;1.20;;;6.90;99.90;;;;;;8362209;28;20189;-65
2023/12/21 15:28:18;;;;;;;1.50;1.10;;;6.90;99.90;;;;;;8370275;28;20323;-65
2023/12/21 15:32:19;;;;;;;2.53;1.47;;;6.90;99.90;;;;;;8364789;28;20271;-63
2023/12/21 15:36:20;;;;;;;2.13;1.50;;;7.00;99.90;;;;;;8363124;28;20240;-63
2023/12/21 15:40:21;;;;;;;2.30;1.20;;;7.00;99.90;;;;;;8359870;28;20177;-63
2023/12/21 15:44:24;;;;;;;2.10;1.30;;;7.10;99.90;;;;;;8361668;28;20204;-65
2023/12/21 15:48:24;;;;;;;3.73;1.70;;;7.10;99.90;;;;;;8361683;28;20296;-63
2023/12/21 15:52:25;;;;;;;3.17;1.70;;;7.10;99.90;;;;;;8372962;28;20213;-63
2023/12/21 15:56:26;;;;;;;2.87;1.43;;;7.20;99.90;;;;;;8362827;28;20185;-63
2023/12/21 16:00:27;;;;;;;2.57;1.40;;;7.10;99.90;;;;;;8359692;28;20185;-65
2023/12/21 16:04:27;;;;;;;2.77;1.60;;;7.20;99.90;;;;;;8362703;28;20301;-64
2023/12/21 16:08:28;;;;;;;1.77;1.23;;;7.20;99.90;;;;;;8361757;28;20185;-65
2023/12/21 16:12:29;;;;;;;1.70;1.37;;;7.30;99.90;;;;;;8359478;28;20592;-65
2023/12/21 16:16:30;;;;;;;2.67;1.43;;;7.30;99.90;;;;;;8363614;28;20206;-66
2023/12/21 16:20:31;;;;;;;2.53;1.90;;;7.40;99.90;;;;;;8353974;28;20184;-64
2023/12/21 16:24:31;;;;;;;3.60;3.17;;;7.40;99.90;;;;;;8362155;28;20181;-66
2023/12/21 16:28:32;;;;;;;4.60;3.27;;;7.40;99.90;;;;;;8369238;28;20189;-65
2023/12/21 16:32:33;;;;;;;3.53;2.47;;;7.40;99.90;;;;;;8358518;28;20209;-67
2023/12/21 16:36:34;;;;;;;2.37;1.70;;;7.50;99.90;;;;;;8361177;28;20181;-64
2023/12/21 16:40:34;;;;;;;2.70;1.47;;;7.50;99.90;;;;;;8364349;28;20185;-65
2023/12/21 16:44:35;;;;;;;2.47;1.40;;;7.60;99.90;;;;;;8361241;28;20263;-66
2023/12/21 16:48:42;;;;;;;2.27;1.70;;;7.60;99.90;;;;;;8361479;28;20548;-64
2023/12/21 16:52:42;;;;;;;1.87;1.50;;;7.60;99.90;;;;;;8356248;28;20209;-66
2023/12/21 16:56:43;;;;;;;2.17;1.40;;;7.60;99.90;;;;;;8363365;28;20238;-67
2023/12/21 17:00:45;;;;;;;1.70;1.20;;;7.50;99.90;;;;;;8364968;28;20185;-67
2023/12/21 17:04:45;;;;;;;2.13;1.27;;;7.50;99.90;;;;;;8349336;28;20551;-67
2023/12/21 17:08:47;;;;;;;0.90;0.60;;;7.50;99.90;;;;;;8380216;28;20184;-70
2023/12/21 17:12:48;;;;;;;0.63;0.53;;;7.50;99.90;;;;;;8364071;28;20234;-66
2023/12/21 17:16:48;;;;;;;0.70;0.40;;;7.60;99.90;;;;;;8363605;28;20189;-67
2023/12/21 17:20:49;;;;;;;1.07;0.40;;;7.70;99.90;;;;;;8367373;28;20192;-66
2023/12/21 17:24:50;;;;;;;1.23;0.30;;;7.70;99.90;;;;;;8366143;28;20189;-67
2023/12/21 17:28:51;;;;;;;1.03;0.33;;;7.70;99.90;;;;;;8363375;28;20216;-68
2023/12/21 17:32:52;;;;;;;2.27;0.50;;;7.60;99.90;;;;;;8363265;28;20218;-68
2023/12/21 17:36:53;;;;;;;0.50;0.30;;;7.50;99.90;;;;;;8362200;28;20284;-70
2023/12/21 17:40:55;;;;;;;0.30;0.30;;;7.50;99.90;;;;;;8364024;28;20197;-66
2023/12/21 17:44:56;;;;;;;0.30;0.30;;;7.50;99.90;;;;;;8363710;28;20199;-68
2023/12/21 17:48:58;;;;;;;1.03;0.30;;;7.40;99.90;;;;;;8359553;28;20220;-67
2023/12/21 17:52:59;;;;;;;0.43;0.40;;;7.30;99.90;;;;;;8363812;28;20293;-67
2023/12/21 17:57:00;;;;;;;0.50;0.30;;;7.10;99.90;;;;;;8378447;28;20224;-68
2023/12/21 18:01:00;;;;;;;1.03;0.60;;;7.10;99.90;;;;;;8361996;28;20440;-68
2023/12/21 18:05:03;;;;;;;0.80;0.70;;;7.10;99.90;;;;;;8361998;28;20253;-66
2023/12/21 18:09:04;;;;;;;2.40;0.33;;;6.90;99.90;;;;;;8363029;28;20208;-65
2023/12/21 18:13:05;;;;;;;1.67;1.47;;;6.80;99.90;;;;;;8358925;28;20210;-65
2023/12/21 18:17:06;;;;;;;2.30;0.50;;;6.70;99.90;;;;;;8347102;28;20229;-64
2023/12/21 18:21:07;;;;;;;0.50;0.50;;;6.60;99.90;;;;;;8360834;28;20225;-65
2023/12/21 18:25:08;;;;;;;0.57;0.50;;;6.60;99.90;;;;;;8356711;28;20204;-68
2023/12/21 18:29:09;;;;;;;2.37;0.70;;;6.50;99.90;;;;;;8357515;28;20374;-69
2023/12/21 18:33:09;;;;;;;0.60;0.50;;;6.40;99.90;;;;;;8360162;28;20217;-67
2023/12/21 18:37:10;;;;;;;1.37;0.70;;;6.30;99.90;;;;;;8357600;28;20197;-64
2023/12/21 18:41:11;;;;;;;2.00;0.63;;;6.20;99.90;;;;;;8358736;28;20189;-64
2023/12/21 18:45:12;;;;;;;1.27;0.70;;;6.10;99.90;;;;;;8363990;28;20251;-67
2023/12/21 18:49:12;;;;;;;3.27;0.80;;;6.00;99.90;;;;;;8361391;28;20182;-66
2023/12/21 18:53:14;;;;;;;2.23;0.70;;;5.90;99.90;;;;;;8357882;28;20244;-64
2023/12/21 18:57:18;;;;;;;2.90;1.00;;;5.80;99.90;;;;;;8362006;28;20190;-66
2023/12/21 19:01:19;;;;;;;2.97;1.13;;;5.80;99.90;;;;;;8357662;28;20189;-67
2023/12/21 19:05:21;;;;;;;2.93;1.00;;;5.80;99.90;;;;;;8360946;28;20213;-66
2023/12/21 19:09:22;;;;;;;5.27;1.40;;;5.80;99.90;;;;;;8357460;28;20185;-65
2023/12/21 19:13:22;;;;;;;2.40;0.83;;;5.70;99.90;;;;;;8358425;28;21258;-67
2023/12/21 19:17:23;;;;;;;2.67;1.07;;;5.80;99.90;;;;;;8362039;28;20199;-68
2023/12/21 19:21:24;;;;;;;1.97;1.27;;;5.80;99.90;;;;;;8360648;28;20198;-69
2023/12/21 19:25:25;;;;;;;6.93;0.87;;;5.80;99.90;;;;;;8357020;28;20185;-69
2023/12/21 19:29:27;;;;;;;2.60;0.90;;;5.80;99.90;;;;;;8357088;28;20188;-68
2023/12/21 19:33:29;;;;;;;5.83;1.33;;;5.80;99.90;;;;;;8357124;28;20209;-64
2023/12/21 19:37:30;;;;;;;2.27;0.90;;;5.70;99.90;;;;;;8358132;28;20189;-68
2023/12/21 19:41:31;;;;;;;3.17;1.00;;;5.80;99.90;;;;;;8356998;28;20266;-67
2023/12/21 19:45:33;;;;;;;5.60;1.13;;;5.80;99.90;;;;;;8363457;28;20235;-68
2023/12/21 19:49:35;;;;;;;8.93;1.73;;;5.80;99.90;;;;;;8353383;28;20183;-69
2023/12/21 19:53:36;;;;;;;5.43;1.40;;;5.80;99.90;;;;;;8361688;28;20214;-66
2023/12/21 19:57:37;;;;;;;5.13;1.60;;;5.70;99.90;;;;;;8357540;28;20178;-67
2023/12/21 20:01:38;;;;;;;3.67;1.53;;;5.60;99.90;;;;;;8355829;28;20249;-67
2023/12/21 20:05:39;;;;;;;5.87;0.90;;;5.40;99.90;;;;;;8357667;28;20263;-65
2023/12/21 20:09:39;;;;;;;3.70;1.40;;;5.40;99.90;;;;;;8364260;28;20271;-70
2023/12/21 20:13:40;;;;;;;6.40;1.37;;;5.40;99.90;;;;;;8360007;28;20220;-70
2023/12/21 20:17:45;;;;;;;5.20;1.10;;;5.40;99.90;;;;;;8360231;28;20207;-69
2023/12/21 20:21:46;;;;;;;4.23;1.10;;;5.40;99.90;;;;;;8371775;28;20197;-66
2023/12/21 20:25:47;;;;;;;2.97;0.97;;;5.30;99.90;;;;;;8354680;28;20189;-67
2023/12/21 20:29:49;;;;;;;8.50;1.70;;;5.30;99.90;;;;;;8370341;28;20263;-65
2023/12/21 20:33:50;;;;;;;5.37;1.40;;;5.30;99.90;;;;;;8370187;28;20262;-69
2023/12/21 20:37:54;;;;;;;5.23;1.60;;;5.30;99.90;;;;;;8355008;28;20548;-71
2023/12/21 20:41:55;;;;;;;6.20;1.40;;;5.30;99.90;;;;;;8351924;28;20197;-68
2023/12/21 20:45:58;;;;;;;7.87;1.10;;;5.30;99.90;;;;;;8366423;28;20192;-67
2023/12/21 20:49:59;;;;;;;4.73;1.60;;;5.30;99.90;;;;;;8365227;28;20251;-68
2023/12/21 20:54:00;;;;;;;10.87;1.93;;;5.30;99.90;;;;;;8361566;28;20313;-68
2023/12/21 20:58:03;;;;;;;6.87;1.20;;;5.40;99.90;;;;;;8376436;28;20185;-65
2023/12/21 21:02:04;;;;;;;4.60;1.17;;;5.30;99.90;;;;;;8362762;28;20267;-69
2023/12/21 21:06:06;;;;;;;2.03;0.87;;;5.40;99.90;;;;;;8363382;28;20291;-67
2023/12/21 21:10:07;;;;;;;1.80;0.80;;;5.40;99.90;;;;;;8364281;28;20190;-67
2023/12/21 21:14:07;;;;;;;4.50;0.77;;;5.40;99.90;;;;;;8362331;28;20219;-64